Time;durP1;ratioP1;P1;durP2;ratioP2;P2;SDS_P1;SDS_P2;PMS_P1;PMS_P2;Temp;Humidity;BMP_temperature;BMP_pressure;BME280_temperature;BME280_humidity;BME280_pressure;Samples;Min_cycle;Max_cycle;Signal;HPM_P1;HPM_P2
2022/03/10 00:00:34;;;;;;;10.65;5.18;;;;;;;2.28;52.84;99573.38;5012679;28;20061;-65
2022/03/10 00:03:20;;;;;;;11.45;5.20;;;;;;;2.52;52.28;99569.41;5012547;28;20060;-64
2022/03/10 00:06:06;;;;;;;12.40;6.45;;;;;;;2.27;52.51;99577.69;5011745;28;20065;-64
2022/03/10 00:08:51;;;;;;;9.43;5.15;;;;;;;2.23;52.63;99576.06;5012582;28;20386;-65
2022/03/10 00:11:37;;;;;;;15.20;8.10;;;;;;;1.99;52.93;99570.53;5012761;28;20057;-65
2022/03/10 00:14:23;;;;;;;14.13;7.80;;;;;;;1.39;55.58;99569.94;5012349;28;20061;-65
2022/03/10 00:17:08;;;;;;;14.02;6.70;;;;;;;1.27;55.98;99563.25;5023066;28;20069;-64
2022/03/10 00:19:54;;;;;;;17.40;6.63;;;;;;;1.25;55.83;99563.28;5012354;28;20052;-65
2022/03/10 00:22:47;;;;;;;12.27;6.40;;;;;;;1.20;55.95;99560.78;5012619;28;20508;-64
2022/03/10 00:25:33;;;;;;;11.52;6.05;;;;;;;1.27;56.15;99555.50;5012621;28;20402;-64
2022/03/10 00:28:19;;;;;;;13.38;6.60;;;;;;;1.25;55.87;99558.09;5002832;28;20413;-65
2022/03/10 00:31:06;;;;;;;13.77;6.75;;;;;;;1.35;55.58;99558.78;5012454;28;20061;-64
2022/03/10 00:33:52;;;;;;;11.23;6.15;;;;;;;1.26;55.65;99556.38;5012255;28;20534;-64
2022/03/10 00:36:37;;;;;;;11.93;5.82;;;;;;;1.39;55.38;99565.59;5012001;28;20061;-64
2022/03/10 00:39:23;;;;;;;16.83;7.18;;;;;;;1.33;55.47;99563.13;5011642;28;20060;-64
2022/03/10 00:42:09;;;;;;;10.98;6.05;;;;;;;1.47;55.12;99568.91;5011216;28;20077;-64
2022/03/10 00:44:55;;;;;;;15.68;7.05;;;;;;;1.55;54.77;99565.34;5011880;28;20061;-64
2022/03/10 00:47:41;;;;;;;15.23;6.70;;;;;;;1.35;55.12;99566.53;5012057;28;20084;-64
2022/03/10 00:50:27;;;;;;;11.57;6.70;;;;;;;1.33;55.39;99560.53;4997091;28;20158;-64
2022/03/10 00:53:13;;;;;;;11.70;6.07;;;;;;;1.21;55.80;99556.44;5002310;28;20057;-64
2022/03/10 00:55:59;;;;;;;10.55;5.63;;;;;;;1.23;56.05;99558.13;5011506;28;20077;-64
2022/03/10 00:58:44;;;;;;;11.88;6.07;;;;;;;1.36;55.46;99565.66;5012245;28;20053;-63
2022/03/10 01:01:30;;;;;;;11.25;6.30;;;;;;;1.38;55.36;99563.91;5014521;28;20061;-64
2022/03/10 01:04:15;;;;;;;12.48;5.85;;;;;;;1.51;54.93;99561.94;5020616;28;20077;-65
2022/03/10 01:07:02;;;;;;;16.60;5.93;;;;;;;1.58;54.72;99563.53;5012197;28;20060;-64
2022/03/10 01:09:47;;;;;;;12.70;5.85;;;;;;;1.61;54.78;99560.03;5012472;28;20061;-64
2022/03/10 01:12:34;;;;;;;12.68;6.15;;;;;;;1.40;55.26;99558.72;5011693;28;20158;-64
2022/03/10 01:15:29;;;;;;;10.85;5.57;;;;;;;1.66;54.61;99559.97;5015344;28;20404;-64
2022/03/10 01:18:15;;;;;;;14.32;6.35;;;;;;;1.89;53.57;99563.81;5033031;28;20059;-64
2022/03/10 01:21:01;;;;;;;19.20;6.72;;;;;;;1.87;53.74;99557.81;5032096;28;20072;-64
2022/03/10 01:23:47;;;;;;;13.43;5.82;;;;;;;1.68;53.90;99555.63;5031541;28;20060;-64
2022/03/10 01:26:32;;;;;;;12.85;5.57;;;;;;;1.83;53.78;99557.03;5031064;28;20072;-62
2022/03/10 01:29:18;;;;;;;13.43;6.15;;;;;;;1.59;54.26;99559.22;5022001;28;20052;-64
2022/03/10 01:32:04;;;;;;;10.25;6.00;;;;;;;1.62;54.47;99564.31;5016447;28;20515;-65
2022/03/10 01:34:50;;;;;;;14.07;6.40;;;;;;;1.54;54.68;99558.44;5032079;28;20061;-65
2022/03/10 01:37:37;;;;;;;12.50;6.18;;;;;;;1.43;55.00;99567.25;5030845;28;20069;-64
2022/03/10 01:40:23;;;;;;;10.85;5.32;;;;;;;1.63;54.64;99565.19;5031197;28;20060;-65
2022/03/10 01:43:08;;;;;;;12.45;5.97;;;;;;;1.52;54.98;99575.72;5016158;28;20056;-64
2022/03/10 01:45:54;;;;;;;10.13;4.90;;;;;;;1.66;54.61;99565.13;5031092;28;20061;-64
2022/03/10 01:48:39;;;;;;;12.00;5.47;;;;;;;1.60;54.69;99566.06;5030551;28;20052;-62
2022/03/10 01:51:26;;;;;;;10.70;5.72;;;;;;;1.29;55.83;99562.31;5034724;28;20065;-63
2022/03/10 01:54:12;;;;;;;14.35;5.43;;;;;;;1.38;55.64;99565.63;5019989;28;20072;-65
2022/03/10 01:56:58;;;;;;;14.10;7.30;;;;;;;1.41;55.49;99568.16;5020169;28;20084;-64
2022/03/10 01:59:44;;;;;;;13.75;6.13;;;;;;;1.37;55.70;99563.94;5034764;28;20112;-64
2022/03/10 02:02:29;;;;;;;14.40;6.50;;;;;;;1.54;55.33;99574.81;5019754;28;20052;-64
2022/03/10 02:05:15;;;;;;;14.25;6.07;;;;;;;1.64;54.91;99577.22;5034631;28;20057;-64
2022/03/10 02:11:06;;;;;;;13.40;6.32;;;;;;;1.63;54.78;99575.53;5034699;28;20053;-64
2022/03/10 02:13:52;;;;;;;13.35;6.97;;;;;;;1.45;55.38;99577.56;5035168;28;20048;-64
2022/03/10 02:19:50;;;;;;;15.23;6.97;;;;;;;1.34;56.00;99576.00;5034726;28;20053;-64
2022/03/10 02:22:36;;;;;;;12.23;6.35;;;;;;;1.27;56.28;99577.00;5033998;28;20056;-63
2022/03/10 02:25:23;;;;;;;11.40;6.05;;;;;;;1.09;56.99;99579.00;5034172;28;20070;-62
2022/03/10 02:28:09;;;;;;;13.45;6.05;;;;;;;1.12;57.14;99569.50;5034407;28;20400;-64
2022/03/10 02:30:55;;;;;;;11.57;5.82;;;;;;;1.29;56.50;99582.16;5034281;28;20065;-64
2022/03/10 02:33:41;;;;;;;12.68;6.88;;;;;;;1.31;56.59;99586.41;5011109;28;20060;-64
2022/03/10 02:36:27;;;;;;;14.23;6.30;;;;;;;1.31;56.45;99588.13;5013854;28;20072;-64
2022/03/10 02:39:13;;;;;;;13.82;6.75;;;;;;;0.95;57.89;99591.28;5015297;28;20060;-64
2022/03/10 02:41:58;;;;;;;13.98;6.18;;;;;;;1.00;57.74;99589.47;4985797;28;20093;-64
2022/03/10 02:44:48;;;;;;;14.60;7.00;;;;;;;0.88;58.16;99589.69;4999412;28;20060;-64
2022/03/10 02:47:34;;;;;;;15.05;6.32;;;;;;;0.83;58.49;99598.31;5014536;28;20418;-64
2022/03/10 02:50:20;;;;;;;12.93;6.13;;;;;;;1.00;57.91;99599.81;5014015;28;20053;-64
2022/03/10 02:53:06;;;;;;;13.15;6.00;;;;;;;1.16;57.20;99603.00;5013688;28;20061;-64
2022/03/10 02:55:52;;;;;;;16.05;6.68;;;;;;;1.07;57.82;99598.84;4999308;28;20595;-64
2022/03/10 02:58:37;;;;;;;13.85;6.28;;;;;;;1.20;57.42;99617.56;5004984;28;20069;-64
2022/03/10 03:01:23;;;;;;;13.18;6.25;;;;;;;1.16;57.39;99622.81;4999073;28;20126;-64
2022/03/10 03:04:09;;;;;;;14.18;6.43;;;;;;;1.19;57.31;99623.59;5013974;28;20077;-64
2022/03/10 03:06:55;;;;;;;14.38;6.65;;;;;;;0.89;58.33;99630.94;5014167;28;20064;-65
2022/03/10 03:09:41;;;;;;;12.75;6.28;;;;;;;0.88;58.63;99626.66;5013758;28;20053;-63
2022/03/10 03:12:26;;;;;;;16.20;6.20;;;;;;;0.82;58.96;99630.19;5013380;28;20505;-65
2022/03/10 03:15:13;;;;;;;12.75;5.22;;;;;;;0.84;58.85;99631.00;5018899;28;20589;-64
2022/03/10 03:17:58;;;;;;;14.27;7.15;;;;;;;0.93;58.76;99637.75;5013569;28;20061;-65
2022/03/10 03:20:44;;;;;;;15.18;7.20;;;;;;;0.75;59.40;99627.72;4998786;28;20057;-64
2022/03/10 03:23:30;;;;;;;17.25;6.43;;;;;;;0.73;59.52;99627.75;5013548;28;20524;-64
2022/03/10 03:26:16;;;;;;;14.75;6.55;;;;;;;0.65;60.20;99642.47;5013071;28;20060;-62
2022/03/10 03:29:01;;;;;;;14.35;6.88;;;;;;;0.65;60.02;99634.72;5013178;28;20053;-62
2022/03/10 03:31:47;;;;;;;13.25;6.47;;;;;;;0.69;60.08;99638.97;4999040;28;20077;-63
2022/03/10 03:34:33;;;;;;;15.35;6.90;;;;;;;0.66;60.19;99644.16;4999285;28;20664;-65
2022/03/10 03:37:19;;;;;;;14.10;7.03;;;;;;;0.61;60.49;99644.22;5013994;28;20413;-64
2022/03/10 03:40:06;;;;;;;16.60;7.38;;;;;;;0.59;60.71;99644.25;5013282;28;20073;-64
2022/03/10 03:42:52;;;;;;;15.23;7.18;;;;;;;0.38;61.51;99645.38;5012872;28;20069;-65
2022/03/10 03:45:37;;;;;;;22.38;6.97;;;;;;;0.47;61.34;99649.56;5012054;28;20061;-63
2022/03/10 03:48:26;;;;;;;14.45;6.68;;;;;;;0.41;61.67;99658.22;5011861;28;20057;-64
2022/03/10 03:51:12;;;;;;;13.50;6.50;;;;;;;0.41;61.61;99653.06;5012253;28;20125;-63
2022/03/10 03:53:58;;;;;;;13.88;5.88;;;;;;;0.56;61.16;99664.94;5012589;28;20080;-64
2022/03/10 03:56:44;;;;;;;17.05;7.28;;;;;;;0.59;61.28;99671.75;5013960;28;20506;-63
2022/03/10 03:59:30;;;;;;;14.25;7.10;;;;;;;0.59;61.31;99667.47;5015473;28;20065;-64
2022/03/10 04:02:15;;;;;;;14.48;6.55;;;;;;;0.61;61.39;99672.59;5014334;28;20061;-65
2022/03/10 04:05:01;;;;;;;13.88;6.43;;;;;;;0.77;60.55;99685.31;5026963;28;20052;-64
2022/03/10 04:07:46;;;;;;;13.05;6.50;;;;;;;0.72;61.16;99678.47;5015482;28;20061;-62
2022/03/10 04:10:33;;;;;;;17.13;6.63;;;;;;;0.61;61.49;99683.78;5028698;28;20052;-61
2022/03/10 04:13:21;;;;;;;13.38;6.68;;;;;;;0.74;60.89;99688.75;5028195;28;20821;-62
2022/03/10 04:16:07;;;;;;;10.85;5.38;;;;;;;0.75;61.23;99689.63;5027384;28;20055;-63
2022/03/10 04:18:52;;;;;;;13.73;6.30;;;;;;;0.88;60.80;99695.47;5016848;28;20060;-64
2022/03/10 04:21:38;;;;;;;13.32;6.03;;;;;;;0.79;60.98;99701.59;5020365;28;20060;-64
2022/03/10 04:24:24;;;;;;;12.68;5.75;;;;;;;0.55;61.71;99698.47;5016343;28;20064;-65
2022/03/10 04:27:09;;;;;;;17.25;6.07;;;;;;;0.83;60.75;99701.53;5011170;28;20049;-65
2022/03/10 04:29:55;;;;;;;11.63;4.82;;;;;;;0.84;60.31;99700.69;5010107;28;20049;-65
2022/03/10 04:32:44;;;;;;;12.27;5.38;;;;;;;0.86;60.10;99713.56;5011717;28;20061;-64
2022/03/10 04:35:30;;;;;;;13.27;5.97;;;;;;;0.84;60.52;99712.72;5012076;28;20056;-65
2022/03/10 04:38:15;;;;;;;12.07;5.20;;;;;;;0.78;60.13;99716.25;5011001;28;20076;-66
2022/03/10 04:41:01;;;;;;;16.48;6.90;;;;;;;0.77;60.83;99732.59;5011908;28;20053;-66
2022/03/10 04:43:47;;;;;;;16.63;6.78;;;;;;;0.48;62.05;99726.06;5019077;28;20382;-65
2022/03/10 04:46:33;;;;;;;16.55;6.72;;;;;;;0.35;62.31;99725.34;5011145;28;20069;-65
2022/03/10 04:49:18;;;;;;;13.38;5.95;;;;;;;0.37;61.92;99731.34;5011917;28;20068;-65
2022/03/10 04:52:04;;;;;;;15.55;6.72;;;;;;;0.24;62.38;99735.78;5011866;28;20053;-65
2022/03/10 04:54:49;;;;;;;12.13;6.32;;;;;;;0.02;63.77;99740.31;5011878;28;20045;-65
2022/03/10 04:57:34;;;;;;;10.85;6.22;;;;;;;-0.08;64.39;99744.69;5013674;28;20060;-65
2022/03/10 05:00:21;;;;;;;14.55;5.97;;;;;;;-0.23;65.17;99749.09;5016674;28;20060;-65
2022/03/10 05:03:07;;;;;;;16.17;7.00;;;;;;;-0.29;65.92;99749.13;5008414;28;20068;-65
2022/03/10 05:05:53;;;;;;;12.50;6.43;;;;;;;-0.25;65.70;99745.69;5037255;28;20053;-64
2022/03/10 05:08:38;;;;;;;11.93;5.75;;;;;;;-0.22;65.34;99752.50;5030220;28;20056;-66
2022/03/10 05:11:24;;;;;;;15.95;6.57;;;;;;;-0.02;64.24;99752.34;5031359;28;20052;-65
2022/03/10 05:14:10;;;;;;;15.55;6.60;;;;;;;-0.03;65.07;99753.19;5031417;28;20088;-65
2022/03/10 05:16:56;;;;;;;14.70;7.50;;;;;;;-0.43;66.84;99760.41;5019034;28;20057;-65
2022/03/10 05:19:41;;;;;;;13.65;6.82;;;;;;;-0.52;67.58;99771.63;5014056;28;20512;-64
2022/03/10 05:22:41;;;;;;;21.10;8.85;;;;;;;-0.59;68.32;99763.94;5030379;28;20060;-64
2022/03/10 05:25:46;;;;;;;16.60;7.68;;;;;;;-0.39;67.78;99771.53;5019010;28;20049;-64
2022/03/10 05:28:31;;;;;;;13.90;6.57;;;;;;;-0.50;68.18;99780.19;5016098;28;20140;-64
2022/03/10 05:31:17;;;;;;;15.52;7.13;;;;;;;-0.43;67.80;99780.16;5034643;28;20080;-62
2022/03/10 05:34:02;;;;;;;15.75;7.20;;;;;;;-0.51;68.93;99790.50;5029756;28;20080;-64
2022/03/10 05:36:48;;;;;;;16.42;6.95;;;;;;;-0.43;68.77;99788.75;5030639;28;20052;-62
2022/03/10 05:39:34;;;;;;;13.60;7.28;;;;;;;-0.38;68.66;99791.28;5010633;28;20084;-63
2022/03/10 05:42:19;;;;;;;17.10;7.68;;;;;;;-0.20;68.21;99787.72;5024581;28;20429;-63
2022/03/10 05:45:07;;;;;;;16.83;7.35;;;;;;;-0.19;68.25;99786.84;5028189;28;20385;-64
2022/03/10 05:47:54;;;;;;;18.15;8.68;;;;;;;-0.01;67.75;99798.72;4996398;28;20056;-64
2022/03/10 05:50:40;;;;;;;17.08;7.85;;;;;;;0.17;66.92;99795.97;5002048;28;20073;-63
2022/03/10 05:53:26;;;;;;;16.23;7.10;;;;;;;0.36;66.52;99788.91;5015818;28;20068;-63
2022/03/10 05:56:12;;;;;;;19.52;8.60;;;;;;;0.61;66.58;99786.09;5027303;28;20060;-65
2022/03/10 05:58:58;;;;;;;16.83;7.53;;;;;;;0.83;65.72;99791.84;5021620;28;20060;-65
2022/03/10 06:01:43;;;;;;;15.07;7.53;;;;;;;0.78;65.16;99796.22;5016344;28;20496;-63
2022/03/10 06:04:29;;;;;;;15.57;7.68;;;;;;;0.97;65.06;99804.59;4996527;28;20057;-65
2022/03/10 06:07:14;;;;;;;14.15;6.72;;;;;;;1.44;62.91;99813.44;5030699;28;20056;-64
2022/03/10 06:10:00;;;;;;;16.05;7.47;;;;;;;1.46;62.98;99811.72;5015953;28;20075;-66
2022/03/10 06:12:46;;;;;;;18.05;7.22;;;;;;;1.74;66.14;99816.47;5030768;28;20504;-64
2022/03/10 06:15:32;;;;;;;15.10;6.75;;;;;;;2.23;66.15;99821.72;5029716;28;20048;-63
2022/03/10 06:18:18;;;;;;;15.40;8.10;;;;;;;2.38;62.62;99812.00;5022617;28;20397;-64
2022/03/10 06:21:04;;;;;;;13.82;6.47;;;;;;;2.82;64.00;99820.63;5026879;28;20049;-65
2022/03/10 06:23:49;;;;;;;16.80;6.95;;;;;;;2.64;61.21;99818.41;5025625;28;20064;-63
2022/03/10 06:26:38;;;;;;;13.95;6.25;;;;;;;3.27;58.12;99831.84;5006199;28;20052;-64
2022/03/10 06:29:24;;;;;;;15.07;7.32;;;;;;;3.13;58.19;99837.31;5024097;28;20084;-64
2022/03/10 06:32:13;;;;;;;16.30;7.35;;;;;;;4.41;68.10;99847.34;5015723;28;20400;-68
2022/03/10 06:34:59;;;;;;;14.02;7.30;;;;;;;4.61;58.57;99847.72;5018523;28;20409;-68
2022/03/10 06:37:45;;;;;;;14.63;7.93;;;;;;;4.76;54.96;99846.47;5032062;28;20057;-69
2022/03/10 06:40:31;;;;;;;17.15;8.00;;;;;;;4.66;53.28;99849.31;5007469;28;20063;-69
2022/03/10 06:43:18;;;;;;;17.15;7.82;;;;;;;4.87;52.37;99852.22;5022592;28;20053;-70
2022/03/10 06:46:04;;;;;;;14.18;6.60;;;;;;;5.26;53.11;99858.06;5018430;28;20112;-69
2022/03/10 06:48:49;;;;;;;15.52;9.05;;;;;;;5.33;50.98;99854.41;5027928;28;20441;-68
2022/03/10 06:51:35;;;;;;;14.95;7.40;;;;;;;5.60;50.90;99862.25;5017063;28;20065;-69
2022/03/10 06:54:21;;;;;;;17.05;8.25;;;;;;;4.76;52.49;99875.03;5026839;28;20053;-69
2022/03/10 06:57:08;;;;;;;17.75;8.18;;;;;;;5.28;51.38;99870.13;4999681;28;20061;-76
2022/03/10 06:59:53;;;;;;;18.92;8.20;;;;;;;5.70;50.30;99882.75;5029604;28;20065;-71
2022/03/10 07:02:39;;;;;;;15.18;8.00;;;;;;;5.79;49.89;99885.94;5023012;28;20057;-70
2022/03/10 07:05:24;;;;;;;15.25;7.93;;;;;;;6.07;48.02;99892.06;5033669;28;20080;-71
2022/03/10 07:08:11;;;;;;;18.20;8.80;;;;;;;5.78;48.70;99886.84;5017743;28;20571;-71
2022/03/10 07:10:57;;;;;;;20.77;7.57;;;;;;;6.16;49.07;99880.50;5030288;28;20060;-72
2022/03/10 07:13:42;;;;;;;15.40;8.70;;;;;;;5.88;49.64;99892.63;5031659;28;20060;-72
2022/03/10 07:16:28;;;;;;;14.15;8.02;;;;;;;5.98;54.53;99889.72;5017858;28;20404;-71
2022/03/10 07:19:14;;;;;;;18.10;9.57;;;;;;;5.21;51.79;99878.13;5017571;28;20072;-72
2022/03/10 07:22:00;;;;;;;18.23;9.25;;;;;;;5.60;51.01;99888.25;5032377;28;20507;-70
2022/03/10 07:24:45;;;;;;;18.58;8.52;;;;;;;5.64;50.86;99884.69;5018264;28;20129;-70
2022/03/10 07:27:31;;;;;;;16.30;8.85;;;;;;;5.86;50.25;99886.59;5019018;28;20259;-70
2022/03/10 07:30:18;;;;;;;18.98;8.75;;;;;;;6.00;49.17;99888.78;5024224;28;20072;-72
2022/03/10 07:33:03;;;;;;;18.88;9.05;;;;;;;5.76;49.37;99890.41;5033176;28;20076;-73
2022/03/10 07:35:49;;;;;;;13.52;7.78;;;;;;;6.22;49.02;99889.88;5033780;28;20393;-70
2022/03/10 07:38:35;;;;;;;13.45;7.63;;;;;;;6.72;46.82;99894.31;5032790;28;20053;-72
2022/03/10 07:41:21;;;;;;;13.70;7.45;;;;;;;7.37;45.95;99896.34;5032752;28;20068;-74
2022/03/10 07:44:07;;;;;;;11.93;6.65;;;;;;;8.02;45.58;99897.38;5023557;28;20056;-73
2022/03/10 07:46:53;;;;;;;15.85;7.95;;;;;;;8.03;43.76;99888.63;5012301;28;20409;-74
2022/03/10 07:49:39;;;;;;;14.23;6.90;;;;;;;7.81;43.00;99884.28;5032487;28;20056;-71
2022/03/10 07:52:24;;;;;;;13.55;6.93;;;;;;;7.97;42.72;99886.25;5031550;28;20056;-70
2022/03/10 07:55:13;;;;;;;16.20;7.32;;;;;;;8.18;42.87;99897.59;5032287;28;20048;-71
2022/03/10 07:57:58;;;;;;;11.35;6.63;;;;;;;8.09;42.49;99901.44;5031352;28;20056;-71
2022/03/10 08:00:44;;;;;;;10.02;6.22;;;;;;;8.67;41.34;99895.66;5031296;28;20076;-71
2022/03/10 08:03:29;;;;;;;11.65;6.72;;;;;;;8.88;40.60;99875.59;5021738;28;20048;-69
2022/03/10 08:06:16;;;;;;;14.02;7.00;;;;;;;8.67;40.26;99893.91;5030948;28;20500;-70
2022/03/10 08:09:02;;;;;;;13.18;6.72;;;;;;;8.40;40.72;99888.91;5031481;28;20094;-70
2022/03/10 08:11:49;;;;;;;12.85;5.75;;;;;;;7.80;41.83;99892.16;5031208;28;20512;-70
2022/03/10 08:14:34;;;;;;;11.95;6.40;;;;;;;7.96;41.37;99902.84;5022988;28;20107;-69
2022/03/10 08:17:20;;;;;;;10.90;6.20;;;;;;;7.62;42.06;99897.19;5030983;28;20089;-69
2022/03/10 08:20:06;;;;;;;12.23;5.60;;;;;;;9.00;39.52;99905.56;5017489;28;20065;-67
2022/03/10 08:22:52;;;;;;;11.48;5.97;;;;;;;9.58;40.25;99898.63;5027690;28;20061;-68
2022/03/10 08:25:38;;;;;;;10.30;5.75;;;;;;;9.64;38.75;99894.03;5032372;28;20159;-72
2022/03/10 08:28:26;;;;;;;9.82;5.32;;;;;;;9.49;37.18;99885.97;5030878;28;20062;-72
2022/03/10 08:31:12;;;;;;;9.32;4.90;;;;;;;10.61;41.38;99873.72;5031788;28;20060;-53
2022/03/10 08:33:57;;;;;;;9.10;5.03;;;;;;;9.86;38.14;99886.84;5032106;28;20504;-53
2022/03/10 08:36:43;;;;;;;7.72;3.97;;;;;;;9.27;50.53;99888.72;5031743;28;20056;-54
2022/03/10 08:39:29;;;;;;;11.63;5.10;;;;;;;10.59;44.35;99881.66;5031721;28;20078;-54
2022/03/10 08:42:14;;;;;;;9.32;5.28;;;;;;;12.05;39.81;99887.91;5030183;28;20076;-51
2022/03/10 08:45:00;;;;;;;10.18;4.72;;;;;;;11.30;34.28;99886.72;5011451;28;20057;-51
2022/03/10 08:47:47;;;;;;;7.95;3.97;;;;;;;10.76;36.26;99886.00;5011570;28;20069;-54
2022/03/10 08:50:33;;;;;;;6.82;3.20;;;;;;;10.84;36.78;99885.63;5016060;28;20084;-53
2022/03/10 08:53:19;;;;;;;5.47;2.85;;;;;;;11.39;36.28;99883.59;5011309;28;20057;-54
2022/03/10 08:56:07;;;;;;;5.20;3.10;;;;;;;12.40;33.52;99889.47;5014344;28;20061;-50
2022/03/10 08:58:52;;;;;;;7.00;3.15;;;;;;;11.57;31.74;99878.31;5016937;28;20073;-51
2022/03/10 09:01:38;;;;;;;6.30;3.28;;;;;;;12.25;32.63;99888.56;5012453;28;20057;-52
2022/03/10 09:04:23;;;;;;;5.72;3.13;;;;;;;11.56;31.97;99876.59;5012048;28;20065;-53
2022/03/10 09:07:10;;;;;;;5.28;3.50;;;;;;;10.08;34.05;99877.97;5014141;28;20064;-56
2022/03/10 09:09:55;;;;;;;6.28;3.35;;;;;;;10.02;33.78;99873.03;5013432;28;20057;-53
2022/03/10 09:12:42;;;;;;;6.88;2.90;;;;;;;9.76;34.21;99876.91;5012002;28;20075;-51
2022/03/10 09:15:27;;;;;;;5.78;3.30;;;;;;;10.89;32.86;99878.34;5011302;28;20052;-52
2022/03/10 09:18:13;;;;;;;5.07;3.05;;;;;;;12.32;30.44;99876.78;5011479;28;20402;-53
2022/03/10 09:21:00;;;;;;;5.80;3.42;;;;;;;10.86;33.03;99882.91;5011653;28;20073;-50
2022/03/10 09:23:45;;;;;;;5.57;3.38;;;;;;;9.43;34.16;99888.88;5016490;28;20057;-53
2022/03/10 09:26:31;;;;;;;4.03;2.72;;;;;;;10.06;35.31;99889.44;5011317;28;20072;-54
2022/03/10 09:29:16;;;;;;;6.03;3.13;;;;;;;9.61;34.91;99884.56;5024390;28;20062;-53
2022/03/10 09:32:02;;;;;;;6.60;3.20;;;;;;;10.52;33.04;99877.63;5011306;28;20060;-52
2022/03/10 09:34:48;;;;;;;5.45;3.10;;;;;;;10.77;32.84;99886.88;5011238;28;20057;-53
2022/03/10 09:37:35;;;;;;;6.30;3.40;;;;;;;10.48;32.06;99884.78;5011192;28;20061;-50
2022/03/10 09:40:20;;;;;;;7.50;3.30;;;;;;;11.03;33.12;99877.63;5010130;28;20053;-51
2022/03/10 09:43:06;;;;;;;5.20;2.90;;;;;;;12.41;30.35;99889.38;5011176;28;20049;-50
2022/03/10 09:45:52;;;;;;;5.78;2.60;;;;;;;12.76;29.62;99885.59;5011414;28;20242;-56
2022/03/10 09:48:39;;;;;;;7.68;3.30;;;;;;;12.09;29.56;99891.25;5011302;28;20057;-55
2022/03/10 09:51:25;;;;;;;6.13;3.30;;;;;;;11.22;32.61;99887.16;5011245;28;20052;-55
2022/03/10 09:54:11;;;;;;;4.90;2.95;;;;;;;10.07;32.94;99896.38;5011253;28;20057;-52
2022/03/10 09:56:57;;;;;;;5.22;3.28;;;;;;;10.08;33.90;99896.31;5025382;28;20512;-53
2022/03/10 09:59:48;;;;;;;5.75;2.67;;;;;;;11.59;31.95;99894.78;5030966;28;20060;-53
2022/03/10 10:02:34;;;;;;;4.28;2.50;;;;;;;12.60;29.01;99890.91;5029561;28;20057;-50
2022/03/10 10:05:32;;;;;;;6.47;2.58;;;;;;;12.66;28.45;99892.34;5030595;28;20080;-50
2022/03/10 10:08:18;;;;;;;5.78;2.70;;;;;;;11.05;30.58;99890.69;5035201;28;20481;-55
2022/03/10 10:11:04;;;;;;;4.50;2.60;;;;;;;10.10;31.08;99896.22;5037173;28;20052;-55
2022/03/10 10:13:51;;;;;;;4.50;2.63;;;;;;;13.22;29.33;99894.25;5039876;28;20057;-54
2022/03/10 10:16:47;;;;;;;5.75;3.33;;;;;;;13.86;27.13;99892.09;5034473;28;20080;-55
2022/03/10 10:19:36;;;;;;;6.00;2.90;;;;;;;13.83;27.57;99898.41;5034334;28;20072;-55
2022/03/10 10:22:24;;;;;;;5.63;3.10;;;;;;;14.34;28.99;99896.06;5034255;28;20064;-54
2022/03/10 10:25:09;;;;;;;4.85;2.70;;;;;;;14.20;25.84;99894.34;5034661;28;20064;-54
2022/03/10 10:27:54;;;;;;;4.45;2.53;;;;;;;14.57;25.24;99904.22;5033363;28;20059;-53
2022/03/10 10:30:56;;;;;;;6.43;2.97;;;;;;;12.75;25.92;99904.94;5034367;28;20080;-53
2022/03/10 10:33:44;;;;;;;4.03;2.30;;;;;;;12.50;28.79;99900.31;5033300;28;20047;-52
2022/03/10 10:36:32;;;;;;;6.03;3.03;;;;;;;14.44;26.68;99896.28;5034162;28;20056;-53
2022/03/10 10:39:18;;;;;;;4.35;2.67;;;;;;;15.01;26.69;99895.06;5039907;28;20374;-51
2022/03/10 10:42:15;;;;;;;5.57;2.83;;;;;;;13.81;26.64;99896.84;5032910;28;20048;-53
2022/03/10 10:45:23;;;;;;;4.53;2.65;;;;;;;15.98;26.62;99890.94;5013238;28;20064;-52
2022/03/10 10:48:10;;;;;;;4.95;2.70;;;;;;;15.74;24.83;99890.91;5014500;28;20056;-52
2022/03/10 10:50:56;;;;;;;4.00;2.45;;;;;;;14.64;25.22;99887.88;5012868;28;20049;-53
2022/03/10 10:53:44;;;;;;;6.63;3.17;;;;;;;10.92;28.66;99895.69;5013880;28;20061;-53
2022/03/10 10:56:30;;;;;;;5.90;2.75;;;;;;;12.32;27.87;99892.56;5013664;28;20068;-51
2022/03/10 11:00:02;;;;;;;4.55;2.67;;;;;;;13.27;27.29;99888.69;5013948;28;20068;-55
2022/03/10 11:02:49;;;;;;;4.55;2.72;;;;;;;13.08;29.43;99878.47;5006467;28;20049;-52
2022/03/10 11:05:37;;;;;;;5.32;2.65;;;;;;;14.28;26.38;99886.78;5013635;28;20084;-50
2022/03/10 11:08:25;;;;;;;5.32;2.97;;;;;;;13.26;28.40;99881.75;5018205;28;20061;-51
2022/03/10 11:11:12;;;;;;;6.55;2.95;;;;;;;11.92;30.51;99899.13;5024008;28;20060;-51
2022/03/10 11:13:59;;;;;;;6.85;3.20;;;;;;;11.61;30.86;99898.19;5033116;28;20056;-52
2022/03/10 11:16:46;;;;;;;5.70;2.80;;;;;;;12.11;31.30;99892.00;5033294;28;20069;-53
2022/03/10 11:19:35;;;;;;;5.22;3.47;;;;;;;12.15;28.11;99889.13;5033545;28;20060;-51
2022/03/10 11:22:52;;;;;;;6.88;2.60;;;;;;;11.92;32.72;99893.00;5022812;28;20056;-51
2022/03/10 11:25:44;;;;;;;6.35;3.15;;;;;;;11.70;29.39;99892.44;5033293;28;20052;-54
2022/03/10 11:28:31;;;;;;;4.75;2.78;;;;;;;12.96;29.70;99885.34;5032227;28;20056;-50
2022/03/10 11:31:18;;;;;;;4.63;2.55;;;;;;;10.86;33.66;99894.25;5033482;28;20060;-53
2022/03/10 11:34:03;;;;;;;7.30;3.78;;;;;;;12.10;31.25;99888.53;5033617;28;20365;-51
2022/03/10 11:36:49;;;;;;;8.70;3.72;;;;;;;10.54;32.28;99894.97;5034163;28;20065;-50
2022/03/10 11:39:52;;;;;;;7.45;3.97;;;;;;;13.01;28.40;99892.00;5022755;28;20052;-53
2022/03/10 11:42:40;;;;;;;8.02;4.28;;;;;;;11.09;29.45;99884.34;5027987;28;20104;-53
2022/03/10 11:45:29;;;;;;;10.73;3.70;;;;;;;11.49;29.86;99891.00;5013733;28;20061;-54
2022/03/10 11:48:34;;;;;;;7.25;4.32;;;;;;;9.94;30.60;99883.88;5020229;28;20061;-54
2022/03/10 11:51:43;;;;;;;8.10;4.55;;;;;;;9.28;31.96;99883.44;5023457;28;20405;-54
2022/03/10 11:54:31;;;;;;;7.63;4.05;;;;;;;10.18;30.73;99893.22;5026388;28;20101;-54
2022/03/10 11:57:16;;;;;;;7.78;3.72;;;;;;;11.55;29.57;99893.28;5029460;28;20068;-54
2022/03/10 12:00:02;;;;;;;7.93;3.88;;;;;;;12.10;28.91;99891.16;5020228;28;20530;-54
2022/03/10 12:02:58;;;;;;;6.70;3.65;;;;;;;12.85;28.62;99886.81;5031806;28;20078;-54
2022/03/10 12:05:57;;;;;;;8.07;3.67;;;;;;;11.13;28.62;99890.28;5030750;28;20508;-54
2022/03/10 12:09:01;;;;;;;9.45;3.58;;;;;;;10.48;29.33;99884.78;5030605;28;20056;-55
2022/03/10 12:11:51;;;;;;;8.57;4.10;;;;;;;10.51;30.02;99889.06;5032615;28;20132;-56
2022/03/10 12:14:39;;;;;;;8.00;3.70;;;;;;;10.66;29.29;99893.50;5018432;28;20056;-56
2022/03/10 12:17:43;;;;;;;7.22;3.78;;;;;;;11.36;27.99;99886.41;5031961;28;20587;-56
2022/03/10 12:20:49;;;;;;;7.22;3.83;;;;;;;11.95;27.69;99888.44;5026162;28;20045;-53
2022/03/10 12:23:51;;;;;;;7.80;3.97;;;;;;;13.74;26.03;99875.31;5031235;28;20056;-54
2022/03/10 12:26:48;;;;;;;7.60;3.88;;;;;;;12.43;26.33;99877.00;5024018;28;20064;-57
2022/03/10 12:29:35;;;;;;;7.28;4.07;;;;;;;11.76;27.44;99882.53;5029017;28;20064;-56
2022/03/10 12:32:24;;;;;;;6.20;3.55;;;;;;;12.64;26.18;99887.19;5014129;28;20052;-55
2022/03/10 12:35:10;;;;;;;7.10;3.60;;;;;;;12.94;25.49;99870.47;5016434;28;20064;-57
2022/03/10 12:37:56;;;;;;;6.80;3.50;;;;;;;14.63;24.77;99862.44;5029340;28;20049;-58
2022/03/10 12:40:42;;;;;;;6.30;3.45;;;;;;;15.19;23.36;99864.88;5031818;28;20583;-55
2022/03/10 12:43:28;;;;;;;7.13;3.67;;;;;;;15.11;23.51;99849.59;5025040;28;20524;-52
2022/03/10 12:46:14;;;;;;;5.78;3.20;;;;;;;15.05;23.56;99848.22;5024776;28;20061;-51
2022/03/10 12:49:28;;;;;;;8.27;4.22;;;;;;;13.34;24.68;99863.69;5016911;28;20057;-51
2022/03/10 12:52:15;;;;;;;11.68;3.90;;;;;;;12.32;26.08;99868.91;5020460;28;20053;-54
2022/03/10 12:55:01;;;;;;;7.68;2.95;;;;;;;12.01;50.28;99870.66;5032171;28;20069;-53
2022/03/10 12:57:46;;;;;;;8.73;3.90;;;;;;;13.14;27.43;99868.41;5032037;28;20060;-53
2022/03/10 13:00:40;;;;;;;7.18;3.63;;;;;;;12.75;26.76;99867.28;5031827;28;20543;-55
2022/03/10 13:03:26;;;;;;;7.60;3.90;;;;;;;13.87;25.41;99859.56;5030618;28;20064;-54
2022/03/10 13:06:12;;;;;;;9.38;3.92;;;;;;;13.51;26.82;99864.47;5040600;28;20068;-54
2022/03/10 13:08:59;;;;;;;6.07;3.03;;;;;;;13.13;26.72;99865.88;5020559;28;20061;-56
2022/03/10 13:11:45;;;;;;;8.57;4.18;;;;;;;13.40;25.22;99858.03;5020378;28;20072;-55
2022/03/10 13:14:30;;;;;;;7.47;3.40;;;;;;;13.17;25.33;99851.63;5011577;28;20061;-55